sensor_id;sensor_type;location;lat;lon;timestamp;temperature;humidity
75262;DHT22;63859;51.064;4.580;2023-03-03T00:00:56;2.50;99.90
75262;DHT22;63859;51.064;4.580;2023-03-03T00:03:23;2.50;99.90
75262;DHT22;63859;51.064;4.580;2023-03-03T00:05:50;2.50;99.90
75262;DHT22;63859;51.064;4.580;2023-03-03T00:08:17;2.50;99.90
75262;DHT22;63859;51.064;4.580;2023-03-03T00:10:44;2.40;99.90
75262;DHT22;63859;51.064;4.580;2023-03-03T00:13:29;2.40;99.90
75262;DHT22;63859;51.064;4.580;2023-03-03T00:16:09;2.40;99.90
75262;DHT22;63859;51.064;4.580;2023-03-03T00:18:36;2.40;99.90
75262;DHT22;63859;51.064;4.580;2023-03-03T00:21:30;2.30;99.90
75262;DHT22;63859;51.064;4.580;2023-03-03T00:26:51;2.30;99.90
75262;DHT22;63859;51.064;4.580;2023-03-03T00:31:51;2.20;99.90
75262;DHT22;63859;51.064;4.580;2023-03-03T00:36:43;2.20;99.90
75262;DHT22;63859;51.064;4.580;2023-03-03T00:39:24;2.20;99.90
75262;DHT22;63859;51.064;4.580;2023-03-03T00:41:51;2.20;99.90
75262;DHT22;63859;51.064;4.580;2023-03-03T00:44:42;2.10;99.90
75262;DHT22;63859;51.064;4.580;2023-03-03T00:47:34;2.10;99.90
75262;DHT22;63859;51.064;4.580;2023-03-03T00:52:43;2.00;99.90
75262;DHT22;63859;51.064;4.580;2023-03-03T00:55:09;2.10;99.90
75262;DHT22;63859;51.064;4.580;2023-03-03T00:57:35;2.00;99.90
75262;DHT22;63859;51.064;4.580;2023-03-03T01:00:01;2.10;99.90
75262;DHT22;63859;51.064;4.580;2023-03-03T01:02:26;2.00;99.90
75262;DHT22;63859;51.064;4.580;2023-03-03T01:04:53;2.10;99.90
75262;DHT22;63859;51.064;4.580;2023-03-03T01:07:21;2.00;99.90
75262;DHT22;63859;51.064;4.580;2023-03-03T01:09:46;2.10;99.90
75262;DHT22;63859;51.064;4.580;2023-03-03T01:12:12;1.90;99.90
75262;DHT22;63859;51.064;4.580;2023-03-03T01:14:38;2.00;99.90
75262;DHT22;63859;51.064;4.580;2023-03-03T01:17:04;2.00;99.90
75262;DHT22;63859;51.064;4.580;2023-03-03T01:19:30;1.90;99.90
75262;DHT22;63859;51.064;4.580;2023-03-03T01:21:56;2.00;99.90
75262;DHT22;63859;51.064;4.580;2023-03-03T01:24:22;1.90;99.90
75262;DHT22;63859;51.064;4.580;2023-03-03T01:26:47;1.90;99.90
75262;DHT22;63859;51.064;4.580;2023-03-03T01:29:13;1.90;99.90
75262;DHT22;63859;51.064;4.580;2023-03-03T01:31:38;1.90;99.90
75262;DHT22;63859;51.064;4.580;2023-03-03T01:34:05;1.80;99.90
75262;DHT22;63859;51.064;4.580;2023-03-03T01:36:32;1.80;99.90
75262;DHT22;63859;51.064;4.580;2023-03-03T01:38:59;1.80;99.90
75262;DHT22;63859;51.064;4.580;2023-03-03T01:41:29;1.70;99.90
75262;DHT22;63859;51.064;4.580;2023-03-03T01:43:58;1.70;99.90
75262;DHT22;63859;51.064;4.580;2023-03-03T01:48:51;1.70;99.90
75262;DHT22;63859;51.064;4.580;2023-03-03T01:53:52;1.70;99.90
75262;DHT22;63859;51.064;4.580;2023-03-03T01:56:18;1.70;99.90
75262;DHT22;63859;51.064;4.580;2023-03-03T01:58:48;1.70;99.90
75262;DHT22;63859;51.064;4.580;2023-03-03T02:01:19;1.60;99.90
75262;DHT22;63859;51.064;4.580;2023-03-03T02:03:45;1.60;99.90
75262;DHT22;63859;51.064;4.580;2023-03-03T02:06:14;1.60;99.90
75262;DHT22;63859;51.064;4.580;2023-03-03T02:11:09;1.60;99.90
75262;DHT22;63859;51.064;4.580;2023-03-03T02:13:35;1.60;99.90
75262;DHT22;63859;51.064;4.580;2023-03-03T02:16:01;1.60;99.90
75262;DHT22;63859;51.064;4.580;2023-03-03T02:18:27;1.60;99.90
75262;DHT22;63859;51.064;4.580;2023-03-03T02:21:10;1.50;99.90
75262;DHT22;63859;51.064;4.580;2023-03-03T02:26:15;1.50;99.90
75262;DHT22;63859;51.064;4.580;2023-03-03T02:28:42;1.50;99.90
75262;DHT22;63859;51.064;4.580;2023-03-03T02:31:11;1.40;99.90
75262;DHT22;63859;51.064;4.580;2023-03-03T02:33:40;1.40;99.90
75262;DHT22;63859;51.064;4.580;2023-03-03T02:36:09;1.50;99.90
75262;DHT22;63859;51.064;4.580;2023-03-03T02:38:40;1.40;99.90
75262;DHT22;63859;51.064;4.580;2023-03-03T02:41:32;1.40;99.90
75262;DHT22;63859;51.064;4.580;2023-03-03T02:44:18;1.40;99.90
75262;DHT22;63859;51.064;4.580;2023-03-03T02:46:47;1.50;99.90
75262;DHT22;63859;51.064;4.580;2023-03-03T02:49:20;1.50;99.90
75262;DHT22;63859;51.064;4.580;2023-03-03T02:51:47;1.50;99.90
75262;DHT22;63859;51.064;4.580;2023-03-03T02:54:15;1.50;99.90
75262;DHT22;63859;51.064;4.580;2023-03-03T02:56:40;1.50;99.90
75262;DHT22;63859;51.064;4.580;2023-03-03T02:59:06;1.50;99.90
75262;DHT22;63859;51.064;4.580;2023-03-03T03:01:33;1.50;99.90
75262;DHT22;63859;51.064;4.580;2023-03-03T03:04:13;1.50;99.90
75262;DHT22;63859;51.064;4.580;2023-03-03T03:06:39;1.50;99.90
75262;DHT22;63859;51.064;4.580;2023-03-03T03:09:06;1.50;99.90
75262;DHT22;63859;51.064;4.580;2023-03-03T03:11:32;1.50;99.90
75262;DHT22;63859;51.064;4.580;2023-03-03T03:14:00;1.50;99.90
75262;DHT22;63859;51.064;4.580;2023-03-03T03:16:26;1.50;99.90
75262;DHT22;63859;51.064;4.580;2023-03-03T03:18:52;1.40;99.90
75262;DHT22;63859;51.064;4.580;2023-03-03T03:21:17;1.40;99.90
75262;DHT22;63859;51.064;4.580;2023-03-03T03:23:43;1.40;99.90
75262;DHT22;63859;51.064;4.580;2023-03-03T03:26:09;1.40;99.90
75262;DHT22;63859;51.064;4.580;2023-03-03T03:28:34;1.50;99.90
75262;DHT22;63859;51.064;4.580;2023-03-03T03:31:01;1.50;99.90
75262;DHT22;63859;51.064;4.580;2023-03-03T03:33:27;1.50;99.90
75262;DHT22;63859;51.064;4.580;2023-03-03T03:35:53;1.50;99.90
75262;DHT22;63859;51.064;4.580;2023-03-03T03:38:21;1.50;99.90
75262;DHT22;63859;51.064;4.580;2023-03-03T03:40:47;1.50;99.90
75262;DHT22;63859;51.064;4.580;2023-03-03T03:43:12;1.50;99.90
75262;DHT22;63859;51.064;4.580;2023-03-03T03:45:40;1.50;99.90
75262;DHT22;63859;51.064;4.580;2023-03-03T03:48:06;1.60;99.90
75262;DHT22;63859;51.064;4.580;2023-03-03T03:50:32;1.50;99.90
75262;DHT22;63859;51.064;4.580;2023-03-03T03:52:57;1.50;99.90
75262;DHT22;63859;51.064;4.580;2023-03-03T03:55:23;1.50;99.90
75262;DHT22;63859;51.064;4.580;2023-03-03T03:57:49;1.60;99.90
75262;DHT22;63859;51.064;4.580;2023-03-03T04:00:14;1.60;99.90
75262;DHT22;63859;51.064;4.580;2023-03-03T04:02:40;1.60;99.90
75262;DHT22;63859;51.064;4.580;2023-03-03T04:05:06;1.60;99.90
75262;DHT22;63859;51.064;4.580;2023-03-03T04:07:32;1.50;99.90
75262;DHT22;63859;51.064;4.580;2023-03-03T04:09:58;1.60;99.90
75262;DHT22;63859;51.064;4.580;2023-03-03T04:12:24;1.60;99.90
75262;DHT22;63859;51.064;4.580;2023-03-03T04:14:50;1.50;99.90
75262;DHT22;63859;51.064;4.580;2023-03-03T04:17:19;1.50;99.90
75262;DHT22;63859;51.064;4.580;2023-03-03T04:19:45;1.60;99.90
75262;DHT22;63859;51.064;4.580;2023-03-03T04:22:12;1.60;99.90
75262;DHT22;63859;51.064;4.580;2023-03-03T04:24:41;1.60;99.90
75262;DHT22;63859;51.064;4.580;2023-03-03T04:27:07;1.60;99.90
75262;DHT22;63859;51.064;4.580;2023-03-03T04:29:36;1.60;99.90
75262;DHT22;63859;51.064;4.580;2023-03-03T04:32:01;1.50;99.90
75262;DHT22;63859;51.064;4.580;2023-03-03T04:34:27;1.60;99.90
75262;DHT22;63859;51.064;4.580;2023-03-03T04:36:52;1.50;99.90
75262;DHT22;63859;51.064;4.580;2023-03-03T04:39:18;1.60;99.90
75262;DHT22;63859;51.064;4.580;2023-03-03T04:41:44;1.50;99.90
75262;DHT22;63859;51.064;4.580;2023-03-03T04:44:09;1.50;99.90
75262;DHT22;63859;51.064;4.580;2023-03-03T04:46:35;1.50;99.90
75262;DHT22;63859;51.064;4.580;2023-03-03T04:49:00;1.60;99.90
75262;DHT22;63859;51.064;4.580;2023-03-03T04:51:26;1.50;99.90
75262;DHT22;63859;51.064;4.580;2023-03-03T04:53:52;1.50;99.90
75262;DHT22;63859;51.064;4.580;2023-03-03T04:56:17;1.60;99.90
75262;DHT22;63859;51.064;4.580;2023-03-03T04:58:43;1.60;99.90
75262;DHT22;63859;51.064;4.580;2023-03-03T05:01:12;1.60;99.90
75262;DHT22;63859;51.064;4.580;2023-03-03T05:03:39;1.60;99.90
75262;DHT22;63859;51.064;4.580;2023-03-03T05:06:05;1.60;99.90
75262;DHT22;63859;51.064;4.580;2023-03-03T05:08:31;1.70;99.90
75262;DHT22;63859;51.064;4.580;2023-03-03T05:10:56;1.70;99.90
75262;DHT22;63859;51.064;4.580;2023-03-03T05:13:24;1.70;99.90
75262;DHT22;63859;51.064;4.580;2023-03-03T05:15:53;1.60;99.90
75262;DHT22;63859;51.064;4.580;2023-03-03T05:18:23;1.60;99.90
75262;DHT22;63859;51.064;4.580;2023-03-03T05:20:50;1.60;99.90
75262;DHT22;63859;51.064;4.580;2023-03-03T05:23:17;1.50;99.90
75262;DHT22;63859;51.064;4.580;2023-03-03T05:25:43;1.50;99.90
75262;DHT22;63859;51.064;4.580;2023-03-03T05:28:09;1.50;99.90
75262;DHT22;63859;51.064;4.580;2023-03-03T05:30:36;1.50;99.90
75262;DHT22;63859;51.064;4.580;2023-03-03T05:33:03;1.50;99.90
75262;DHT22;63859;51.064;4.580;2023-03-03T05:35:28;1.50;99.90
75262;DHT22;63859;51.064;4.580;2023-03-03T05:37:55;1.70;99.90
75262;DHT22;63859;51.064;4.580;2023-03-03T05:40:25;1.60;99.90
75262;DHT22;63859;51.064;4.580;2023-03-03T05:42:52;1.60;99.90
75262;DHT22;63859;51.064;4.580;2023-03-03T05:45:18;1.60;99.90
75262;DHT22;63859;51.064;4.580;2023-03-03T05:47:50;1.60;99.90
75262;DHT22;63859;51.064;4.580;2023-03-03T05:50:16;1.60;99.90
75262;DHT22;63859;51.064;4.580;2023-03-03T05:52:42;1.50;99.90
75262;DHT22;63859;51.064;4.580;2023-03-03T05:55:08;1.60;99.90
75262;DHT22;63859;51.064;4.580;2023-03-03T05:57:34;1.50;99.90
75262;DHT22;63859;51.064;4.580;2023-03-03T06:00:01;1.50;99.90
75262;DHT22;63859;51.064;4.580;2023-03-03T06:02:28;1.50;99.90
75262;DHT22;63859;51.064;4.580;2023-03-03T06:04:53;1.50;99.90
75262;DHT22;63859;51.064;4.580;2023-03-03T06:07:19;1.50;99.90
75262;DHT22;63859;51.064;4.580;2023-03-03T06:09:44;1.50;99.90
75262;DHT22;63859;51.064;4.580;2023-03-03T06:12:10;1.50;99.90
75262;DHT22;63859;51.064;4.580;2023-03-03T06:14:35;1.40;99.90
75262;DHT22;63859;51.064;4.580;2023-03-03T06:17:01;1.40;99.90
75262;DHT22;63859;51.064;4.580;2023-03-03T06:19:27;1.40;99.90
75262;DHT22;63859;51.064;4.580;2023-03-03T06:21:52;1.40;99.90
75262;DHT22;63859;51.064;4.580;2023-03-03T06:24:18;1.40;99.90
75262;DHT22;63859;51.064;4.580;2023-03-03T06:26:44;1.40;99.90
75262;DHT22;63859;51.064;4.580;2023-03-03T06:29:09;1.30;99.90
75262;DHT22;63859;51.064;4.580;2023-03-03T06:31:35;1.30;99.90
75262;DHT22;63859;51.064;4.580;2023-03-03T06:34:01;1.30;99.90
75262;DHT22;63859;51.064;4.580;2023-03-03T06:36:27;1.40;99.90
75262;DHT22;63859;51.064;4.580;2023-03-03T06:38:52;1.30;99.90
75262;DHT22;63859;51.064;4.580;2023-03-03T06:41:18;1.40;99.90
75262;DHT22;63859;51.064;4.580;2023-03-03T06:43:44;1.30;99.90
75262;DHT22;63859;51.064;4.580;2023-03-03T06:46:09;1.40;99.90
75262;DHT22;63859;51.064;4.580;2023-03-03T06:48:35;1.40;99.90
75262;DHT22;63859;51.064;4.580;2023-03-03T06:51:02;1.40;99.90
75262;DHT22;63859;51.064;4.580;2023-03-03T06:53:33;1.40;99.90
75262;DHT22;63859;51.064;4.580;2023-03-03T06:55:59;1.50;99.90
75262;DHT22;63859;51.064;4.580;2023-03-03T06:58:26;1.50;99.90
75262;DHT22;63859;51.064;4.580;2023-03-03T07:01:00;1.50;99.90
75262;DHT22;63859;51.064;4.580;2023-03-03T07:03:31;1.50;99.90
75262;DHT22;63859;51.064;4.580;2023-03-03T07:05:57;1.50;99.90
75262;DHT22;63859;51.064;4.580;2023-03-03T07:08:23;1.50;99.90
75262;DHT22;63859;51.064;4.580;2023-03-03T07:10:51;1.60;99.90
75262;DHT22;63859;51.064;4.580;2023-03-03T07:13:25;1.60;99.90
75262;DHT22;63859;51.064;4.580;2023-03-03T07:16:00;1.60;99.90
75262;DHT22;63859;51.064;4.580;2023-03-03T07:18:56;1.70;99.90
75262;DHT22;63859;51.064;4.580;2023-03-03T07:21:33;1.60;99.90
75262;DHT22;63859;51.064;4.580;2023-03-03T07:24:08;1.60;99.90
75262;DHT22;63859;51.064;4.580;2023-03-03T07:26:36;1.60;99.90
75262;DHT22;63859;51.064;4.580;2023-03-03T07:31:45;1.60;99.90
75262;DHT22;63859;51.064;4.580;2023-03-03T07:34:22;1.60;99.90
75262;DHT22;63859;51.064;4.580;2023-03-03T07:36:57;1.60;99.90
75262;DHT22;63859;51.064;4.580;2023-03-03T07:39:33;1.60;99.90
75262;DHT22;63859;51.064;4.580;2023-03-03T07:42:21;1.60;99.90
75262;DHT22;63859;51.064;4.580;2023-03-03T07:44:50;1.60;99.90
75262;DHT22;63859;51.064;4.580;2023-03-03T07:49:46;1.70;99.90
75262;DHT22;63859;51.064;4.580;2023-03-03T07:52:24;1.60;99.90
75262;DHT22;63859;51.064;4.580;2023-03-03T07:54:52;1.70;99.90
75262;DHT22;63859;51.064;4.580;2023-03-03T07:57:34;1.70;99.90
75262;DHT22;63859;51.064;4.580;2023-03-03T08:01:18;1.70;99.90
75262;DHT22;63859;51.064;4.580;2023-03-03T08:03:02;1.70;99.90
75262;DHT22;63859;51.064;4.580;2023-03-03T08:05:42;1.70;99.90
75262;DHT22;63859;51.064;4.580;2023-03-03T08:10:55;1.70;99.90
75262;DHT22;63859;51.064;4.580;2023-03-03T08:13:28;1.80;99.90
75262;DHT22;63859;51.064;4.580;2023-03-03T08:18:43;1.80;99.90
75262;DHT22;63859;51.064;4.580;2023-03-03T08:21:23;1.90;99.90
75262;DHT22;63859;51.064;4.580;2023-03-03T08:23:49;1.90;99.90
75262;DHT22;63859;51.064;4.580;2023-03-03T08:26:17;1.90;99.90
75262;DHT22;63859;51.064;4.580;2023-03-03T08:28:44;2.00;99.90
75262;DHT22;63859;51.064;4.580;2023-03-03T08:31:10;2.00;99.90
75262;DHT22;63859;51.064;4.580;2023-03-03T08:33:36;2.10;99.90
75262;DHT22;63859;51.064;4.580;2023-03-03T08:36:02;2.20;99.90
75262;DHT22;63859;51.064;4.580;2023-03-03T08:38:28;2.10;99.90
75262;DHT22;63859;51.064;4.580;2023-03-03T08:40:53;2.10;99.90
75262;DHT22;63859;51.064;4.580;2023-03-03T08:43:19;2.20;99.90
75262;DHT22;63859;51.064;4.580;2023-03-03T08:45:47;2.20;99.90
75262;DHT22;63859;51.064;4.580;2023-03-03T08:48:14;2.20;99.90
75262;DHT22;63859;51.064;4.580;2023-03-03T08:50:40;2.20;99.90
75262;DHT22;63859;51.064;4.580;2023-03-03T08:53:06;2.30;99.90
75262;DHT22;63859;51.064;4.580;2023-03-03T08:55:32;2.30;99.90
75262;DHT22;63859;51.064;4.580;2023-03-03T08:57:57;2.30;99.90
75262;DHT22;63859;51.064;4.580;2023-03-03T09:00:23;2.30;99.90
75262;DHT22;63859;51.064;4.580;2023-03-03T09:02:51;2.40;99.90
75262;DHT22;63859;51.064;4.580;2023-03-03T09:05:17;2.40;99.90
75262;DHT22;63859;51.064;4.580;2023-03-03T09:07:44;2.40;99.90
75262;DHT22;63859;51.064;4.580;2023-03-03T09:10:14;2.40;99.90
75262;DHT22;63859;51.064;4.580;2023-03-03T09:12:42;2.50;99.90
75262;DHT22;63859;51.064;4.580;2023-03-03T09:15:22;2.50;99.90
75262;DHT22;63859;51.064;4.580;2023-03-03T09:17:48;2.60;99.90
75262;DHT22;63859;51.064;4.580;2023-03-03T09:22:46;2.70;99.90
75262;DHT22;63859;51.064;4.580;2023-03-03T09:25:32;2.70;99.90
75262;DHT22;63859;51.064;4.580;2023-03-03T09:27:59;2.70;99.90
75262;DHT22;63859;51.064;4.580;2023-03-03T09:32:56;2.80;99.90
75262;DHT22;63859;51.064;4.580;2023-03-03T09:35:38;2.80;99.90
75262;DHT22;63859;51.064;4.580;2023-03-03T09:38:28;2.80;99.90
75262;DHT22;63859;51.064;4.580;2023-03-03T10:00:26;3.10;99.90
75262;DHT22;63859;51.064;4.580;2023-03-03T10:06:01;3.10;99.90
75262;DHT22;63859;51.064;4.580;2023-03-03T10:15:16;3.30;99.90
75262;DHT22;63859;51.064;4.580;2023-03-03T10:23:17;3.50;99.90
75262;DHT22;63859;51.064;4.580;2023-03-03T10:29:05;3.50;99.90
75262;DHT22;63859;51.064;4.580;2023-03-03T10:31:58;3.70;99.90
75262;DHT22;63859;51.064;4.580;2023-03-03T10:46:14;4.10;99.90
75262;DHT22;63859;51.064;4.580;2023-03-03T10:52:12;4.30;99.90
75262;DHT22;63859;51.064;4.580;2023-03-03T10:57:32;4.30;99.90
75262;DHT22;63859;51.064;4.580;2023-03-03T11:06:01;4.40;99.90
75262;DHT22;63859;51.064;4.580;2023-03-03T11:28:07;4.90;99.90
75262;DHT22;63859;51.064;4.580;2023-03-03T11:30:47;4.90;99.90
75262;DHT22;63859;51.064;4.580;2023-03-03T11:36:20;5.00;99.90
75262;DHT22;63859;51.064;4.580;2023-03-03T11:38:58;5.20;99.90
75262;DHT22;63859;51.064;4.580;2023-03-03T11:42:44;5.30;99.90
75262;DHT22;63859;51.064;4.580;2023-03-03T11:44:40;5.50;99.90
75262;DHT22;63859;51.064;4.580;2023-03-03T11:47:24;5.40;99.90
75262;DHT22;63859;51.064;4.580;2023-03-03T11:50:01;5.50;99.90
75262;DHT22;63859;51.064;4.580;2023-03-03T11:57:56;6.40;99.90
75262;DHT22;63859;51.064;4.580;2023-03-03T12:00:42;6.80;99.90
75262;DHT22;63859;51.064;4.580;2023-03-03T12:09:05;7.30;99.90
75262;DHT22;63859;51.064;4.580;2023-03-03T12:17:00;7.90;99.90
75262;DHT22;63859;51.064;4.580;2023-03-03T12:22:30;8.30;99.90
75262;DHT22;63859;51.064;4.580;2023-03-03T12:46:18;8.90;99.90
75262;DHT22;63859;51.064;4.580;2023-03-03T12:48:46;9.20;99.90
75262;DHT22;63859;51.064;4.580;2023-03-03T12:57:02;9.20;99.90
75262;DHT22;63859;51.064;4.580;2023-03-03T13:10:47;10.10;99.90
75262;DHT22;63859;51.064;4.580;2023-03-03T13:13:30;9.90;99.90
75262;DHT22;63859;51.064;4.580;2023-03-03T13:16:08;10.20;99.90
75262;DHT22;63859;51.064;4.580;2023-03-03T13:21:16;10.40;99.90
75262;DHT22;63859;51.064;4.580;2023-03-03T13:23:49;10.50;99.90
75262;DHT22;63859;51.064;4.580;2023-03-03T13:26:34;10.10;99.90
75262;DHT22;63859;51.064;4.580;2023-03-03T13:29:31;10.10;99.90
75262;DHT22;63859;51.064;4.580;2023-03-03T13:31:59;10.10;99.90
75262;DHT22;63859;51.064;4.580;2023-03-03T13:34:39;10.00;99.90
75262;DHT22;63859;51.064;4.580;2023-03-03T13:37:22;10.10;99.90
75262;DHT22;63859;51.064;4.580;2023-03-03T13:42:26;10.40;99.90
75262;DHT22;63859;51.064;4.580;2023-03-03T13:44:54;10.30;99.90
75262;DHT22;63859;51.064;4.580;2023-03-03T13:47:42;10.40;99.90
75262;DHT22;63859;51.064;4.580;2023-03-03T13:50:35;10.40;99.90
75262;DHT22;63859;51.064;4.580;2023-03-03T13:55:54;10.60;99.90
75262;DHT22;63859;51.064;4.580;2023-03-03T14:01:00;10.80;99.90
75262;DHT22;63859;51.064;4.580;2023-03-03T14:03:42;10.80;99.90
75262;DHT22;63859;51.064;4.580;2023-03-03T14:06:27;10.70;99.90
75262;DHT22;63859;51.064;4.580;2023-03-03T14:17:06;11.00;99.90
75262;DHT22;63859;51.064;4.580;2023-03-03T14:19:43;11.10;99.90
75262;DHT22;63859;51.064;4.580;2023-03-03T14:24:59;11.30;99.90
75262;DHT22;63859;51.064;4.580;2023-03-03T14:27:34;11.20;99.90
75262;DHT22;63859;51.064;4.580;2023-03-03T14:35:41;11.20;99.90
75262;DHT22;63859;51.064;4.580;2023-03-03T14:40:35;10.80;99.90
75262;DHT22;63859;51.064;4.580;2023-03-03T14:43:05;10.60;99.90
75262;DHT22;63859;51.064;4.580;2023-03-03T14:45:43;10.60;99.90
75262;DHT22;63859;51.064;4.580;2023-03-03T14:48:24;10.60;99.90
75262;DHT22;63859;51.064;4.580;2023-03-03T14:53:43;10.70;99.90
75262;DHT22;63859;51.064;4.580;2023-03-03T14:58:47;10.60;99.90
75262;DHT22;63859;51.064;4.580;2023-03-03T15:01:30;10.50;99.90
75262;DHT22;63859;51.064;4.580;2023-03-03T15:04:09;10.40;99.90
75262;DHT22;63859;51.064;4.580;2023-03-03T15:06:49;10.20;99.90
75262;DHT22;63859;51.064;4.580;2023-03-03T15:09:38;10.00;99.90
75262;DHT22;63859;51.064;4.580;2023-03-03T15:15:06;9.80;99.90
75262;DHT22;63859;51.064;4.580;2023-03-03T15:33:25;9.40;99.90
75262;DHT22;63859;51.064;4.580;2023-03-03T15:38:39;9.40;99.90
75262;DHT22;63859;51.064;4.580;2023-03-03T15:44:10;9.20;99.90
75262;DHT22;63859;51.064;4.580;2023-03-03T15:49:18;9.00;99.90
75262;DHT22;63859;51.064;4.580;2023-03-03T16:02:50;8.90;99.90
75262;DHT22;63859;51.064;4.580;2023-03-03T16:05:34;9.00;99.90
75262;DHT22;63859;51.064;4.580;2023-03-03T16:08:10;8.90;99.90
75262;DHT22;63859;51.064;4.580;2023-03-03T16:42:30;8.50;99.90
75262;DHT22;63859;51.064;4.580;2023-03-03T16:53:17;8.10;99.90
75262;DHT22;63859;51.064;4.580;2023-03-03T17:04:39;7.70;99.90
75262;DHT22;63859;51.064;4.580;2023-03-03T17:12:58;7.50;99.90
75262;DHT22;63859;51.064;4.580;2023-03-03T17:20:54;7.30;99.90
75262;DHT22;63859;51.064;4.580;2023-03-03T17:31:55;7.10;99.90
75262;DHT22;63859;51.064;4.580;2023-03-03T17:37:35;7.00;99.90
75262;DHT22;63859;51.064;4.580;2023-03-03T17:40:28;6.90;99.90
75262;DHT22;63859;51.064;4.580;2023-03-03T17:45:33;7.00;99.90
75262;DHT22;63859;51.064;4.580;2023-03-03T17:48:29;6.90;99.90
75262;DHT22;63859;51.064;4.580;2023-03-03T17:54:10;6.90;99.90
75262;DHT22;63859;51.064;4.580;2023-03-03T18:05:06;6.80;99.90
75262;DHT22;63859;51.064;4.580;2023-03-03T18:19:20;6.80;99.90
75262;DHT22;63859;51.064;4.580;2023-03-03T18:24:29;6.70;99.90
75262;DHT22;63859;51.064;4.580;2023-03-03T18:33:07;6.70;99.90
75262;DHT22;63859;51.064;4.580;2023-03-03T18:38:22;6.70;99.90
75262;DHT22;63859;51.064;4.580;2023-03-03T18:41:03;6.70;99.90
75262;DHT22;63859;51.064;4.580;2023-03-03T18:54:02;6.60;99.90
75262;DHT22;63859;51.064;4.580;2023-03-03T19:02:37;6.60;99.90
75262;DHT22;63859;51.064;4.580;2023-03-03T19:05:17;6.60;99.90
75262;DHT22;63859;51.064;4.580;2023-03-03T19:10:59;6.50;99.90
75262;DHT22;63859;51.064;4.580;2023-03-03T19:16:04;6.50;99.90
75262;DHT22;63859;51.064;4.580;2023-03-03T19:19:18;6.50;99.90
75262;DHT22;63859;51.064;4.580;2023-03-03T19:21:32;6.50;99.90
75262;DHT22;63859;51.064;4.580;2023-03-03T19:24:01;6.50;99.90
75262;DHT22;63859;51.064;4.580;2023-03-03T19:26:33;6.50;99.90
75262;DHT22;63859;51.064;4.580;2023-03-03T19:45:24;6.40;99.90
75262;DHT22;63859;51.064;4.580;2023-03-03T19:53:17;6.40;99.90
75262;DHT22;63859;51.064;4.580;2023-03-03T19:56:15;6.40;99.90
75262;DHT22;63859;51.064;4.580;2023-03-03T20:01:42;6.40;99.90
75262;DHT22;63859;51.064;4.580;2023-03-03T20:15:27;6.40;99.90
75262;DHT22;63859;51.064;4.580;2023-03-03T20:26:26;6.30;99.90
75262;DHT22;63859;51.064;4.580;2023-03-03T20:31:44;6.40;99.90
75262;DHT22;63859;51.064;4.580;2023-03-03T20:34:34;6.30;99.90
75262;DHT22;63859;51.064;4.580;2023-03-03T20:37:22;6.30;99.90
75262;DHT22;63859;51.064;4.580;2023-03-03T20:40:09;6.30;99.90
75262;DHT22;63859;51.064;4.580;2023-03-03T20:47:45;6.30;99.90
75262;DHT22;63859;51.064;4.580;2023-03-03T20:50:26;6.30;99.90
75262;DHT22;63859;51.064;4.580;2023-03-03T21:04:20;6.30;99.90
75262;DHT22;63859;51.064;4.580;2023-03-03T21:06:46;6.30;99.90
75262;DHT22;63859;51.064;4.580;2023-03-03T21:09:31;6.20;99.90
75262;DHT22;63859;51.064;4.580;2023-03-03T21:11:59;6.20;99.90
75262;DHT22;63859;51.064;4.580;2023-03-03T21:14:33;6.20;99.90
75262;DHT22;63859;51.064;4.580;2023-03-03T21:17:09;6.30;99.90
75262;DHT22;63859;51.064;4.580;2023-03-03T21:19:35;6.20;99.90
75262;DHT22;63859;51.064;4.580;2023-03-03T21:22:01;6.10;99.90
75262;DHT22;63859;51.064;4.580;2023-03-03T21:27:28;6.10;99.90
75262;DHT22;63859;51.064;4.580;2023-03-03T21:40:24;6.10;99.90
75262;DHT22;63859;51.064;4.580;2023-03-03T21:42:54;6.10;99.90
75262;DHT22;63859;51.064;4.580;2023-03-03T21:45:20;6.00;99.90
75262;DHT22;63859;51.064;4.580;2023-03-03T21:47:46;6.00;99.90
75262;DHT22;63859;51.064;4.580;2023-03-03T21:50:13;6.00;99.90
75262;DHT22;63859;51.064;4.580;2023-03-03T21:52:39;6.00;99.90
75262;DHT22;63859;51.064;4.580;2023-03-03T21:55:05;6.00;99.90
75262;DHT22;63859;51.064;4.580;2023-03-03T21:57:31;5.90;99.90
75262;DHT22;63859;51.064;4.580;2023-03-03T21:59:56;6.00;99.90
75262;DHT22;63859;51.064;4.580;2023-03-03T22:02:22;6.00;99.90
75262;DHT22;63859;51.064;4.580;2023-03-03T22:04:47;6.00;99.90
75262;DHT22;63859;51.064;4.580;2023-03-03T22:07:13;6.00;99.90
75262;DHT22;63859;51.064;4.580;2023-03-03T22:09:39;6.00;99.90
75262;DHT22;63859;51.064;4.580;2023-03-03T22:12:05;6.00;99.90
75262;DHT22;63859;51.064;4.580;2023-03-03T22:14:31;6.00;99.90
75262;DHT22;63859;51.064;4.580;2023-03-03T22:16:57;5.90;99.90
75262;DHT22;63859;51.064;4.580;2023-03-03T22:19:23;5.90;99.90
75262;DHT22;63859;51.064;4.580;2023-03-03T22:21:49;5.90;99.90
75262;DHT22;63859;51.064;4.580;2023-03-03T22:24:15;5.90;99.90
75262;DHT22;63859;51.064;4.580;2023-03-03T22:26:42;5.90;99.90
75262;DHT22;63859;51.064;4.580;2023-03-03T22:29:08;5.90;99.90
75262;DHT22;63859;51.064;4.580;2023-03-03T22:31:34;5.90;99.90
75262;DHT22;63859;51.064;4.580;2023-03-03T22:34:00;5.90;99.90
75262;DHT22;63859;51.064;4.580;2023-03-03T22:36:26;5.80;99.90
75262;DHT22;63859;51.064;4.580;2023-03-03T22:38:51;5.80;99.90
75262;DHT22;63859;51.064;4.580;2023-03-03T22:41:17;5.80;99.90
75262;DHT22;63859;51.064;4.580;2023-03-03T22:43:43;5.80;99.90
75262;DHT22;63859;51.064;4.580;2023-03-03T22:46:10;5.80;99.90
75262;DHT22;63859;51.064;4.580;2023-03-03T22:48:36;5.80;99.90
75262;DHT22;63859;51.064;4.580;2023-03-03T22:51:02;5.80;99.90
75262;DHT22;63859;51.064;4.580;2023-03-03T22:53:28;5.70;99.90
75262;DHT22;63859;51.064;4.580;2023-03-03T22:55:54;5.80;99.90
75262;DHT22;63859;51.064;4.580;2023-03-03T22:58:20;5.70;99.90
75262;DHT22;63859;51.064;4.580;2023-03-03T23:00:48;5.80;99.90
75262;DHT22;63859;51.064;4.580;2023-03-03T23:03:14;5.80;99.90
75262;DHT22;63859;51.064;4.580;2023-03-03T23:05:41;5.80;99.90
75262;DHT22;63859;51.064;4.580;2023-03-03T23:08:10;5.70;99.90
75262;DHT22;63859;51.064;4.580;2023-03-03T23:10:36;5.80;99.90
75262;DHT22;63859;51.064;4.580;2023-03-03T23:13:02;5.80;99.90
75262;DHT22;63859;51.064;4.580;2023-03-03T23:15:27;5.80;99.90
75262;DHT22;63859;51.064;4.580;2023-03-03T23:17:53;5.80;99.90
75262;DHT22;63859;51.064;4.580;2023-03-03T23:20:21;5.80;99.90
75262;DHT22;63859;51.064;4.580;2023-03-03T23:22:47;5.70;99.90
75262;DHT22;63859;51.064;4.580;2023-03-03T23:25:13;5.70;99.90
75262;DHT22;63859;51.064;4.580;2023-03-03T23:27:40;5.80;99.90
75262;DHT22;63859;51.064;4.580;2023-03-03T23:30:06;5.70;99.90
75262;DHT22;63859;51.064;4.580;2023-03-03T23:32:33;5.70;99.90
75262;DHT22;63859;51.064;4.580;2023-03-03T23:34:58;5.70;99.90
75262;DHT22;63859;51.064;4.580;2023-03-03T23:37:24;5.70;99.90
75262;DHT22;63859;51.064;4.580;2023-03-03T23:39:50;5.70;99.90
75262;DHT22;63859;51.064;4.580;2023-03-03T23:42:16;5.70;99.90
75262;DHT22;63859;51.064;4.580;2023-03-03T23:44:41;5.70;99.90